createdAt,value
2022-09-01T00:01:06.070Z,17.60
2022-09-01T00:04:13.620Z,17.50
2022-09-01T00:07:15.674Z,17.60
2022-09-01T00:10:17.751Z,17.50
2022-09-01T00:13:19.616Z,17.40
2022-09-01T00:16:22.080Z,17.30
2022-09-01T00:19:24.654Z,17.30
2022-09-01T00:22:26.779Z,17.20
2022-09-01T00:25:30.125Z,17.20
2022-09-01T00:28:37.796Z,17.10
2022-09-01T00:31:40.273Z,17.10
2022-09-01T00:34:42.248Z,17.00
2022-09-01T00:37:44.666Z,17.00
2022-09-01T00:40:46.732Z,17.00
2022-09-01T00:43:54.643Z,16.90
2022-09-01T00:46:57.211Z,16.90
2022-09-01T00:49:59.381Z,16.90
2022-09-01T00:53:01.334Z,16.80
2022-09-01T00:56:05.106Z,16.80
2022-09-01T00:59:09.263Z,16.80
2022-09-01T01:02:11.375Z,16.80
2022-09-01T01:05:15.300Z,16.70
2022-09-01T01:08:19.891Z,16.70
2022-09-01T01:11:22.049Z,16.70
2022-09-01T01:14:24.018Z,16.80
2022-09-01T01:17:26.037Z,16.80
2022-09-01T01:20:51.781Z,16.80
2022-09-01T01:24:02.585Z,16.80
2022-09-01T01:27:05.276Z,16.80
2022-09-01T01:30:10.197Z,16.70
2022-09-01T01:33:12.115Z,16.70
2022-09-01T01:36:19.367Z,16.60
2022-09-01T01:39:25.565Z,16.60
2022-09-01T01:42:29.536Z,16.50
2022-09-01T01:45:32.211Z,16.40
2022-09-01T01:48:36.835Z,16.30
2022-09-01T01:51:39.490Z,16.40
2022-09-01T01:54:41.805Z,16.30
2022-09-01T01:57:49.252Z,16.30
2022-09-01T02:00:52.607Z,16.30
2022-09-01T02:03:55.853Z,16.10
2022-09-01T02:06:58.642Z,16.10
2022-09-01T02:10:01.957Z,16.00
2022-09-01T02:13:07.358Z,16.00
2022-09-01T02:16:12.865Z,16.00
2022-09-01T02:19:15.537Z,16.00
2022-09-01T02:22:19.834Z,15.90
2022-09-01T02:25:23.474Z,15.90
2022-09-01T02:28:28.745Z,15.90
2022-09-01T02:31:41.861Z,15.90
2022-09-01T02:34:43.729Z,15.80
2022-09-01T02:37:46.421Z,15.80
2022-09-01T02:40:48.889Z,15.70
2022-09-01T02:43:51.286Z,15.70
2022-09-01T02:46:53.321Z,15.70
2022-09-01T02:49:55.334Z,15.70
2022-09-01T02:53:00.802Z,15.60
2022-09-01T02:56:13.799Z,15.50
2022-09-01T02:59:17.339Z,15.50
2022-09-01T03:02:19.300Z,15.50
2022-09-01T03:05:27.032Z,15.40
2022-09-01T03:08:31.790Z,15.40
2022-09-01T03:11:36.014Z,15.40
2022-09-01T03:14:37.910Z,15.40
2022-09-01T03:17:41.819Z,15.30
2022-09-01T03:20:46.578Z,15.30
2022-09-01T03:23:49.892Z,15.30
2022-09-01T03:26:51.794Z,15.30
2022-09-01T03:29:53.922Z,15.30
2022-09-01T03:32:59.728Z,15.20
2022-09-01T03:36:01.662Z,15.20
2022-09-01T03:39:04.324Z,15.20
2022-09-01T03:42:09.047Z,15.10
2022-09-01T03:45:16.019Z,15.10
2022-09-01T03:48:18.639Z,15.10
2022-09-01T03:51:22.822Z,15.00
2022-09-01T03:54:28.414Z,15.10
2022-09-01T03:57:32.488Z,15.00
2022-09-01T04:00:48.727Z,15.00
2022-09-01T04:03:52.293Z,15.00
2022-09-01T04:06:54.194Z,15.10
2022-09-01T04:09:56.470Z,15.00
2022-09-01T04:13:02.196Z,15.00
2022-09-01T04:16:31.153Z,15.10
2022-09-01T04:19:39.262Z,15.10
2022-09-01T04:22:41.297Z,15.20
2022-09-01T04:25:43.925Z,15.30
2022-09-01T04:28:49.584Z,15.50
2022-09-01T04:31:53.559Z,15.40
2022-09-01T04:34:57.119Z,15.60
2022-09-01T04:38:01.912Z,15.60
2022-09-01T04:41:06.651Z,15.70
2022-09-01T04:44:08.637Z,15.70
2022-09-01T04:47:11.580Z,15.80
2022-09-01T04:50:17.876Z,16.10
2022-09-01T04:53:20.423Z,16.00
2022-09-01T04:56:23.271Z,16.20
2022-09-01T04:59:27.353Z,16.30
2022-09-01T05:02:29.319Z,16.20
2022-09-01T05:05:43.078Z,16.30
2022-09-01T05:08:48.397Z,16.50
2022-09-01T05:11:50.418Z,16.60
2022-09-01T05:14:52.506Z,16.90
2022-09-01T05:17:58.352Z,17.00
2022-09-01T05:21:09.908Z,17.00
2022-09-01T05:24:19.098Z,17.10
2022-09-01T05:27:22.831Z,17.20
2022-09-01T05:30:28.764Z,17.40
2022-09-01T05:33:30.705Z,17.50
2022-09-01T05:36:33.644Z,17.70
2022-09-01T05:39:38.057Z,17.80
2022-09-01T05:42:40.648Z,17.80
2022-09-01T05:46:03.389Z,17.90
2022-09-01T05:49:09.382Z,18.00
2022-09-01T05:52:11.292Z,18.30
2022-09-01T05:55:15.357Z,18.50
2022-09-01T05:58:18.017Z,18.80
2022-09-01T06:01:22.385Z,19.00
2022-09-01T06:04:30.041Z,19.00
2022-09-01T06:07:32.114Z,19.10
2022-09-01T06:10:37.453Z,19.30
2022-09-01T06:13:42.279Z,19.50
2022-09-01T06:16:44.754Z,19.70
2022-09-01T06:19:46.839Z,19.90
2022-09-01T06:22:48.974Z,19.50
2022-09-01T06:25:51.604Z,19.60
2022-09-01T06:28:58.248Z,19.80
2022-09-01T06:32:02.418Z,19.70
2022-09-01T06:35:08.594Z,19.90
2022-09-01T06:38:12.163Z,19.80
2022-09-01T06:41:14.219Z,19.90
2022-09-01T06:44:22.395Z,20.10
2022-09-01T06:47:24.625Z,20.10
2022-09-01T06:53:53.204Z,20.50
2022-09-01T06:56:55.587Z,20.40
2022-09-01T06:59:57.525Z,20.70
2022-09-01T07:02:59.950Z,20.60
2022-09-01T07:06:07.018Z,21.00
2022-09-01T07:09:20.359Z,21.00
2022-09-01T07:12:26.003Z,21.20
2022-09-01T07:18:59.019Z,21.10
2022-09-01T07:22:08.427Z,21.20
2022-09-01T07:25:12.774Z,21.00
2022-09-01T07:28:17.432Z,21.00
2022-09-01T07:34:55.147Z,21.60
2022-09-01T07:42:59.052Z,21.10
2022-09-01T07:44:44.162Z,20.80
2022-09-01T07:47:54.180Z,21.10
2022-09-01T07:54:19.384Z,20.70
2022-09-01T07:57:23.010Z,21.30
2022-09-01T08:00:25.027Z,21.00
2022-09-01T08:03:33.129Z,21.50
2022-09-01T08:06:38.528Z,21.60
2022-09-01T08:09:44.201Z,21.70
2022-09-01T08:12:46.537Z,22.00
2022-09-01T08:16:18.857Z,22.40
2022-09-01T08:19:16.405Z,22.50
2022-09-01T08:22:21.932Z,22.20
2022-09-01T08:25:25.082Z,22.20
2022-09-01T08:28:27.349Z,22.30
2022-09-01T08:31:30.991Z,22.70
2022-09-01T08:34:34.261Z,22.00
2022-09-01T08:37:36.634Z,21.70
2022-09-01T08:40:40.732Z,21.90
2022-09-01T08:44:10.280Z,22.00
2022-09-01T08:47:16.445Z,22.10
2022-09-01T08:50:20.784Z,22.40
2022-09-01T08:53:33.365Z,22.70
2022-09-01T08:56:37.549Z,22.40
2022-09-01T08:59:39.504Z,22.30
2022-09-01T09:02:54.258Z,22.20
2022-09-01T09:06:25.853Z,22.10
2022-09-01T09:09:41.479Z,22.10
2022-09-01T09:12:58.121Z,22.30
2022-09-01T09:16:10.790Z,22.30
2022-09-01T09:19:38.889Z,22.80
2022-09-01T09:22:42.126Z,22.80
2022-09-01T09:25:43.994Z,22.50
2022-09-01T09:28:48.054Z,22.40
2022-09-01T09:32:01.229Z,22.20
2022-09-01T09:35:20.702Z,22.50
2022-09-01T09:38:33.056Z,22.60
2022-09-01T09:41:36.117Z,22.90
2022-09-01T09:44:49.001Z,23.00
2022-09-01T09:47:52.127Z,23.10
2022-09-01T09:50:54.147Z,22.70
2022-09-01T09:54:15.927Z,22.50
2022-09-01T09:57:18.486Z,22.70
2022-09-01T10:00:24.516Z,22.70
2022-09-01T10:03:42.589Z,22.80
2022-09-01T10:06:46.999Z,22.80
2022-09-01T10:09:49.798Z,22.80
2022-09-01T10:12:56.277Z,22.80
2022-09-01T10:16:03.605Z,22.90
2022-09-01T10:19:12.857Z,23.30
2022-09-01T10:22:15.519Z,22.90
2022-09-01T10:25:23.337Z,22.70
2022-09-01T10:28:27.608Z,22.90
2022-09-01T10:31:32.118Z,23.50
2022-09-01T10:34:37.563Z,23.30
2022-09-01T10:37:41.444Z,22.70
2022-09-01T10:40:50.977Z,22.60
2022-09-01T10:43:53.273Z,22.80
2022-09-01T10:46:59.866Z,22.90
2022-09-01T10:50:26.223Z,23.00
2022-09-01T10:53:34.097Z,22.90
2022-09-01T10:56:51.353Z,23.00
2022-09-01T10:59:56.750Z,22.70
2022-09-01T11:03:31.431Z,22.70
2022-09-01T11:06:42.959Z,23.10
2022-09-01T11:09:56.610Z,23.60
2022-09-01T11:13:31.757Z,22.20
2022-09-01T11:16:46.618Z,22.50
2022-09-01T11:19:58.357Z,22.70
2022-09-01T11:23:14.895Z,22.80
2022-09-01T11:26:32.566Z,22.80
2022-09-01T11:29:58.335Z,22.80
2022-09-01T11:33:12.946Z,22.80
2022-09-01T11:36:14.971Z,23.00
2022-09-01T11:39:20.918Z,23.00
2022-09-01T11:42:36.203Z,23.20
2022-09-01T11:45:52.554Z,22.80
2022-09-01T11:48:56.058Z,22.70
2022-09-01T11:52:00.431Z,22.80
2022-09-01T11:55:04.880Z,22.40
2022-09-01T11:58:17.985Z,22.30
2022-09-01T12:01:28.374Z,22.30
2022-09-01T12:04:37.669Z,22.80
2022-09-01T12:07:47.034Z,22.10
2022-09-01T12:10:49.175Z,21.60
2022-09-01T12:14:10.900Z,21.70
2022-09-01T12:17:21.299Z,22.00
2022-09-01T12:20:28.102Z,22.30
2022-09-01T12:23:46.007Z,22.40
2022-09-01T12:26:51.305Z,22.40
2022-09-01T12:29:53.519Z,22.40
2022-09-01T12:36:36.694Z,22.90
2022-09-01T12:39:53.051Z,23.20
2022-09-01T12:42:55.031Z,23.10
2022-09-01T12:46:00.014Z,23.00
2022-09-01T12:49:28.485Z,22.70
2022-09-01T12:52:34.755Z,22.50
2022-09-01T12:55:52.808Z,22.40
2022-09-01T12:59:26.156Z,22.50
2022-09-01T13:02:47.108Z,22.60
2022-09-01T13:05:54.961Z,22.70
2022-09-01T13:08:57.053Z,22.90
2022-09-01T13:12:19.816Z,22.70
2022-09-01T13:15:21.951Z,22.60
2022-09-01T13:18:26.176Z,22.70
2022-09-01T13:21:29.683Z,22.60
2022-09-01T13:24:32.082Z,22.50
2022-09-01T13:27:34.043Z,22.40
2022-09-01T13:30:36.090Z,22.50
2022-09-01T13:37:00.187Z,22.50
2022-09-01T13:40:02.837Z,24.00
2022-09-01T13:43:06.272Z,25.40
2022-09-01T13:46:08.377Z,25.40
2022-09-01T13:52:33.053Z,25.70
2022-09-01T13:55:39.700Z,24.60
2022-09-01T13:58:41.613Z,22.80
2022-09-01T14:01:43.782Z,22.60
2022-09-01T14:04:45.847Z,24.50
2022-09-01T14:07:49.019Z,24.90
2022-09-01T14:10:52.138Z,24.80
2022-09-01T14:13:54.109Z,24.80
2022-09-01T14:16:58.235Z,23.90
2022-09-01T14:20:00.297Z,23.60
2022-09-01T14:23:06.678Z,25.60
2022-09-01T14:26:12.190Z,23.70
2022-09-01T14:29:14.315Z,22.20
2022-09-01T14:32:17.250Z,21.90
2022-09-01T14:35:21.784Z,21.80
2022-09-01T14:38:23.880Z,22.90
2022-09-01T14:41:26.971Z,22.30
2022-09-01T14:44:29.178Z,21.90
2022-09-01T14:47:31.989Z,21.70
2022-09-01T14:50:40.117Z,21.70
2022-09-01T14:53:42.005Z,21.70
2022-09-01T14:57:28.065Z,21.70
2022-09-01T15:00:10.242Z,21.60
2022-09-01T15:03:12.216Z,21.70
2022-09-01T15:06:16.438Z,21.90
2022-09-01T15:09:19.200Z,21.60
2022-09-01T15:12:22.437Z,21.80
2022-09-01T15:15:24.835Z,21.70
2022-09-01T15:18:26.720Z,21.50
2022-09-01T15:21:32.208Z,21.30
2022-09-01T15:24:34.425Z,21.40
2022-09-01T15:27:40.765Z,21.40
2022-09-01T15:30:46.477Z,21.20
2022-09-01T15:33:48.712Z,21.20
2022-09-01T15:36:50.613Z,21.20
2022-09-01T15:39:52.618Z,21.40
2022-09-01T15:42:55.873Z,22.10
2022-09-01T15:45:59.629Z,21.60
2022-09-01T15:49:08.405Z,21.80
2022-09-01T15:52:10.419Z,22.40
2022-09-01T15:55:12.309Z,23.00
2022-09-01T15:58:16.299Z,23.60
2022-09-01T16:01:19.638Z,23.00
2022-09-01T16:04:27.275Z,21.40
2022-09-01T16:07:29.555Z,21.50
2022-09-01T16:10:36.604Z,21.00
2022-09-01T16:13:41.013Z,20.50
2022-09-01T16:17:18.225Z,20.30
2022-09-01T16:20:48.465Z,20.20
2022-09-01T16:23:52.420Z,20.10
2022-09-01T16:26:57.308Z,19.90
2022-09-01T16:30:04.898Z,19.80
2022-09-01T16:33:19.867Z,19.80
2022-09-01T16:36:34.773Z,19.60
2022-09-01T16:39:48.987Z,19.50
2022-09-01T16:42:50.894Z,19.40
2022-09-01T16:46:29.792Z,19.40
2022-09-01T16:50:06.276Z,19.30
2022-09-01T16:53:36.734Z,19.20
2022-09-01T16:56:56.165Z,19.10
2022-09-01T17:00:04.466Z,18.90
2022-09-01T17:03:17.029Z,18.90
2022-09-01T17:06:24.090Z,18.80
2022-09-01T17:09:40.589Z,18.70
2022-09-01T17:12:48.272Z,18.50
2022-09-01T17:16:02.308Z,18.50
2022-09-01T17:19:13.024Z,18.40
2022-09-01T17:22:16.034Z,18.40
2022-09-01T17:25:45.010Z,18.40
2022-09-01T17:29:03.668Z,18.30
2022-09-01T17:32:50.496Z,18.30
2022-09-01T17:36:09.259Z,18.30
2022-09-01T17:39:17.097Z,18.10
2022-09-01T17:42:40.535Z,18.10
2022-09-01T17:46:20.054Z,18.00
2022-09-01T17:49:40.880Z,17.90
2022-09-01T17:53:13.793Z,17.60
2022-09-01T17:56:34.082Z,17.50
2022-09-01T17:59:36.717Z,17.50
2022-09-01T18:02:50.628Z,17.50
2022-09-01T18:06:10.394Z,17.50
2022-09-01T18:09:17.318Z,17.40
2022-09-01T18:12:27.177Z,17.20
2022-09-01T18:15:40.733Z,17.10
2022-09-01T18:18:46.305Z,16.90
2022-09-01T18:21:54.958Z,16.90
2022-09-01T18:25:03.804Z,16.90
2022-09-01T18:28:06.104Z,16.80
2022-09-01T18:31:17.064Z,16.70
2022-09-01T18:34:19.057Z,16.70
2022-09-01T18:37:33.081Z,16.60
2022-09-01T18:40:44.103Z,16.40
2022-09-01T18:44:17.171Z,16.30
2022-09-01T18:47:31.918Z,16.20
2022-09-01T18:51:01.137Z,16.20
2022-09-01T18:54:15.074Z,16.20
2022-09-01T18:57:23.410Z,16.10
2022-09-01T19:00:33.612Z,16.00
2022-09-01T19:03:54.104Z,16.00
2022-09-01T19:07:19.088Z,15.90
2022-09-01T19:10:50.413Z,15.80
2022-09-01T19:14:30.896Z,15.80
2022-09-01T19:18:04.206Z,15.70
2022-09-01T19:21:28.455Z,15.70
2022-09-01T19:24:44.345Z,15.60
2022-09-01T19:27:56.885Z,15.50
2022-09-01T19:31:17.992Z,15.40
2022-09-01T19:34:25.550Z,15.50
2022-09-01T19:37:27.774Z,15.40
2022-09-01T19:43:43.180Z,15.30
2022-09-01T19:46:50.772Z,15.30
2022-09-01T19:50:16.136Z,15.30
2022-09-01T19:53:38.668Z,15.20
2022-09-01T19:56:49.524Z,15.10
2022-09-01T20:00:21.975Z,15.10
2022-09-01T20:03:33.557Z,15.00
2022-09-01T20:06:42.623Z,15.00
2022-09-01T20:09:54.620Z,15.00
2022-09-01T20:13:11.366Z,14.90
2022-09-01T20:16:48.649Z,14.80
2022-09-01T20:19:56.897Z,14.80
2022-09-01T20:23:13.180Z,14.80
2022-09-01T20:26:27.169Z,14.70
2022-09-01T20:29:45.526Z,14.70
2022-09-01T20:33:22.264Z,14.70
2022-09-01T20:36:43.512Z,14.60
2022-09-01T20:40:01.369Z,14.60
2022-09-01T20:43:27.000Z,14.50
2022-09-01T20:46:29.050Z,14.50
2022-09-01T20:49:37.265Z,14.40
2022-09-01T20:52:48.552Z,14.40
2022-09-01T20:56:17.460Z,14.30
2022-09-01T21:00:11.880Z,14.30
2022-09-01T21:03:45.550Z,14.20
2022-09-01T21:07:12.300Z,14.10
2022-09-01T21:11:02.022Z,14.10
2022-09-01T21:14:47.754Z,14.00
2022-09-01T21:18:19.186Z,14.00
2022-09-01T21:21:29.064Z,13.90
2022-09-01T21:24:31.394Z,13.90
2022-09-01T21:27:51.447Z,13.90
2022-09-01T21:30:55.166Z,13.80
2022-09-01T21:33:57.243Z,13.70
2022-09-01T21:36:59.298Z,13.70
2022-09-01T21:40:01.251Z,13.70
2022-09-01T21:43:20.612Z,13.70
2022-09-01T21:46:23.053Z,13.70
2022-09-01T21:49:25.441Z,13.70
2022-09-01T21:52:27.814Z,13.70
2022-09-01T21:55:32.097Z,13.60
2022-09-01T21:58:38.555Z,13.70
2022-09-01T22:01:42.055Z,13.70
2022-09-01T22:04:44.694Z,13.70
2022-09-01T22:07:49.397Z,13.60
2022-09-01T22:10:53.549Z,13.50
2022-09-01T22:13:58.533Z,13.50
2022-09-01T22:17:04.161Z,13.50
2022-09-01T22:20:09.304Z,13.50
2022-09-01T22:23:12.238Z,13.40
2022-09-01T22:26:25.661Z,13.40
2022-09-01T22:29:27.601Z,13.30
2022-09-01T22:32:33.112Z,13.20
2022-09-01T22:35:39.652Z,13.20
2022-09-01T22:38:41.562Z,13.10
2022-09-01T22:41:43.547Z,13.10
2022-09-01T22:44:45.510Z,13.10
2022-09-01T22:47:47.840Z,13.10
2022-09-01T22:50:50.834Z,13.00
2022-09-01T22:53:54.136Z,13.10
2022-09-01T22:56:56.414Z,13.10
2022-09-01T23:00:01.802Z,13.00
2022-09-01T23:03:05.020Z,13.00
2022-09-01T23:06:11.639Z,13.00
2022-09-01T23:09:15.009Z,12.90
2022-09-01T23:12:16.863Z,12.80
2022-09-01T23:15:18.898Z,12.70
2022-09-01T23:18:20.857Z,12.60
2022-09-01T23:21:26.778Z,12.60
2022-09-01T23:24:28.762Z,12.50
2022-09-01T23:27:32.073Z,12.40
2022-09-01T23:30:34.288Z,12.40
2022-09-01T23:33:36.308Z,12.30
2022-09-01T23:36:38.326Z,12.40
2022-09-01T23:39:40.320Z,12.40
2022-09-01T23:42:42.459Z,12.30
2022-09-01T23:45:48.381Z,12.30
2022-09-01T23:48:50.502Z,12.30
2022-09-01T23:51:54.466Z,12.20
2022-09-01T23:54:57.203Z,12.30
2022-09-01T23:57:59.131Z,12.30
